Virton, Belgium
Current Conditions -  °F | °C
As of 4:50 PM on Thursday 27 Nov 2014 (Local Time) from ELLX Reporting Station
Light Rain Light Rain  
Wind Chill: 39°   Ceiling: 400
Heat Index: 43°   Visibility: 1.5mi
Dew Point: 43°   Wind: 6mph
Humidity: 100%   Direction: 100°E
Pressure: 29.71"   Gusts: NA
Location:  49.57°N, 5.53°E
Report Text: ELLX 271550Z 10005KT 060V140 2500 BR -RA FEW001 BKN004 06/06 Q1006 NOSIG
Loading
Personal Weather Stations






























Interactive Weather Map New forecast layout! Learn more

10-Day Weather Forecast

Advertisements
Track Severe Weather on mobile